Terminal Aerodrome Forecast
Issued by NWS

Home | Current Version | Previous Version | Text Only | Print | Product List | Glossary On
Versions: 1 2 3 4 5 6 7 8 9 10 11 12 13 14 15 16 17 18 19 20
000
FTUS45 KSLC 300544
TAFOGD
TAF
KOGD 300544Z 3006/0106 33006KT P6SM BKN080
     FM300800 15006KT P6SM BKN080
     FM301500 36010KT P6SM SCT050 BKN080
     FM302200 04015G24KT P6SM FEW050 SCT080
     FM010100 07022G30KT P6SM FEW080=

USA.gov is the U.S. government's official web portal to all federal, state and local government web resources and services.